createdAt,value
2023-04-11T00:00:01.723Z,10.50
2023-04-11T00:02:41.308Z,10.40
2023-04-11T00:05:08.959Z,10.40
2023-04-11T00:07:35.852Z,10.40
2023-04-11T00:10:03.374Z,10.40
2023-04-11T00:12:30.259Z,10.30
2023-04-11T00:14:57.084Z,10.20
2023-04-11T00:17:23.854Z,10.20
2023-04-11T00:19:53.251Z,10.20
2023-04-11T00:22:20.141Z,10.20
2023-04-11T00:24:46.986Z,10.20
2023-04-11T00:27:13.812Z,10.20
2023-04-11T00:29:40.747Z,10.20
2023-04-11T00:32:07.792Z,10.20
2023-04-11T00:34:34.576Z,10.10
2023-04-11T00:37:01.654Z,10.20
2023-04-11T00:39:30.281Z,10.20
2023-04-11T00:42:07.830Z,10.10
2023-04-11T00:44:36.068Z,10.10
2023-04-11T00:47:06.489Z,10.10
2023-04-11T00:49:34.201Z,10.00
2023-04-11T00:52:01.732Z,10.10
2023-04-11T00:54:30.127Z,10.10
2023-04-11T00:56:59.405Z,10.10
2023-04-11T00:59:28.730Z,10.10
2023-04-11T01:01:55.987Z,10.10
2023-04-11T01:04:23.915Z,10.10
2023-04-11T01:06:54.325Z,10.20
2023-04-11T01:09:23.223Z,10.10
2023-04-11T01:11:50.713Z,10.00
2023-04-11T01:14:20.590Z,10.10
2023-04-11T01:16:50.626Z,10.00
2023-04-11T01:19:22.094Z,10.00
2023-04-11T01:21:50.928Z,10.00
2023-04-11T01:24:18.084Z,9.90
2023-04-11T01:26:46.216Z,9.90
2023-04-11T01:29:15.121Z,9.90
2023-04-11T01:31:42.218Z,9.90
2023-04-11T01:34:16.115Z,9.80
2023-04-11T01:36:43.461Z,9.90
2023-04-11T01:39:11.465Z,10.00
2023-04-11T01:41:39.501Z,10.10
2023-04-11T01:44:06.565Z,10.00
2023-04-11T01:46:33.656Z,10.00
2023-04-11T01:49:03.434Z,10.00
2023-04-11T01:51:30.611Z,10.10
2023-04-11T01:53:57.328Z,10.10
2023-04-11T01:56:23.973Z,10.10
2023-04-11T01:58:50.871Z,10.10
2023-04-11T02:01:19.310Z,10.00
2023-04-11T02:03:46.564Z,9.80
2023-04-11T02:06:14.880Z,9.80
2023-04-11T02:08:41.634Z,9.70
2023-04-11T02:11:08.462Z,9.70
2023-04-11T02:13:35.852Z,9.70
2023-04-11T02:16:17.912Z,9.70
2023-04-11T02:18:45.797Z,9.70
2023-04-11T02:21:12.751Z,9.60
2023-04-11T02:23:39.513Z,9.60
2023-04-11T02:26:06.293Z,9.50
2023-04-11T02:28:33.164Z,9.50
2023-04-11T02:30:59.951Z,9.50
2023-04-11T02:33:26.969Z,9.60
2023-04-11T02:35:53.761Z,9.50
2023-04-11T02:38:21.536Z,9.70
2023-04-11T02:40:48.406Z,9.50
2023-04-11T02:43:16.118Z,9.40
2023-04-11T02:45:43.044Z,9.40
2023-04-11T02:48:11.712Z,9.40
2023-04-11T02:50:43.747Z,9.30
2023-04-11T02:53:11.260Z,9.30
2023-04-11T02:55:43.579Z,9.30
2023-04-11T02:58:17.869Z,9.30
2023-04-11T03:00:47.116Z,9.30
2023-04-11T03:03:14.463Z,9.30
2023-04-11T03:05:44.803Z,9.30
2023-04-11T03:08:13.596Z,9.30
2023-04-11T03:10:47.176Z,9.30
2023-04-11T03:13:15.668Z,9.30
2023-04-11T03:15:42.733Z,9.30
2023-04-11T03:18:11.291Z,9.30
2023-04-11T03:20:41.699Z,9.30
2023-04-11T03:23:10.814Z,9.20
2023-04-11T03:25:38.814Z,9.20
2023-04-11T03:28:05.645Z,9.20
2023-04-11T03:30:33.653Z,9.20
2023-04-11T03:33:02.301Z,9.10
2023-04-11T03:35:32.058Z,9.20
2023-04-11T03:37:59.757Z,9.10
2023-04-11T03:40:26.869Z,9.10
2023-04-11T03:43:04.796Z,9.00
2023-04-11T03:45:34.655Z,9.00
2023-04-11T03:48:04.929Z,8.90
2023-04-11T03:50:45.188Z,9.00
2023-04-11T03:53:13.947Z,9.00
2023-04-11T03:55:44.103Z,9.00
2023-04-11T03:58:13.514Z,8.90
2023-04-11T04:00:42.164Z,9.00
2023-04-11T04:03:09.842Z,8.90
2023-04-11T04:05:38.436Z,8.90
2023-04-11T04:08:05.857Z,8.90
2023-04-11T04:10:47.607Z,9.00
2023-04-11T04:13:15.163Z,8.90
2023-04-11T04:15:51.247Z,8.90
2023-04-11T04:18:21.235Z,8.90
2023-04-11T04:20:49.194Z,8.90
2023-04-11T04:23:21.969Z,8.80
2023-04-11T04:26:17.883Z,8.90
2023-04-11T04:28:53.925Z,8.80
2023-04-11T04:31:29.757Z,8.80
2023-04-11T04:34:08.595Z,8.80
2023-04-11T04:36:49.293Z,8.70
2023-04-11T04:39:25.311Z,8.90
2023-04-11T04:42:00.222Z,8.90
2023-04-11T04:44:33.031Z,8.90
2023-04-11T04:47:04.936Z,8.80
2023-04-11T04:49:32.171Z,8.80
2023-04-11T04:52:00.367Z,8.70
2023-04-11T04:54:27.102Z,8.70
2023-04-11T04:56:54.183Z,8.60
2023-04-11T04:59:21.114Z,8.60
2023-04-11T05:01:54.865Z,8.50
2023-04-11T05:04:28.434Z,8.60
2023-04-11T05:06:58.887Z,8.60
2023-04-11T05:09:26.570Z,8.60
2023-04-11T05:12:01.184Z,8.60
2023-04-11T05:14:28.051Z,8.60
2023-04-11T05:16:55.404Z,8.60
2023-04-11T05:19:22.245Z,8.60
2023-04-11T05:21:53.244Z,8.60
2023-04-11T05:24:20.574Z,8.60
2023-04-11T05:26:48.428Z,8.60
2023-04-11T05:29:18.539Z,8.60
2023-04-11T05:31:45.693Z,8.60
2023-04-11T05:34:12.422Z,8.60
2023-04-11T05:36:39.359Z,8.60
2023-04-11T05:39:06.122Z,8.60
2023-04-11T05:41:32.988Z,8.60
2023-04-11T05:44:03.790Z,8.60
2023-04-11T05:46:37.018Z,8.70
2023-04-11T05:49:04.266Z,8.70
2023-04-11T05:51:31.341Z,8.70
2023-04-11T05:53:58.622Z,8.80
2023-04-11T05:56:25.660Z,8.80
2023-04-11T05:58:52.562Z,8.80
2023-04-11T06:01:19.358Z,8.80
2023-04-11T06:03:47.308Z,8.90
2023-04-11T06:06:14.560Z,8.90
2023-04-11T06:08:41.404Z,8.90
2023-04-11T06:11:08.268Z,9.00
2023-04-11T06:13:34.996Z,9.00
2023-04-11T06:16:02.086Z,9.00
2023-04-11T06:18:28.848Z,9.10
2023-04-11T06:20:55.790Z,9.20
2023-04-11T06:23:22.538Z,9.30
2023-04-11T06:25:49.285Z,9.30
2023-04-11T06:28:16.098Z,9.40
2023-04-11T06:30:42.813Z,9.40
2023-04-11T06:33:09.538Z,9.50
2023-04-11T06:35:36.547Z,9.60
2023-04-11T06:38:03.500Z,9.60
2023-04-11T06:40:30.280Z,9.70
2023-04-11T06:42:58.556Z,9.80
2023-04-11T06:45:25.375Z,9.70
2023-04-11T06:47:52.294Z,9.90
2023-04-11T06:50:19.173Z,10.00
2023-04-11T06:52:45.937Z,10.10
2023-04-11T06:55:15.304Z,10.30
2023-04-11T06:57:43.421Z,10.20
2023-04-11T07:00:12.207Z,10.40
2023-04-11T07:02:42.127Z,10.40
2023-04-11T07:05:10.191Z,10.50
2023-04-11T07:07:37.709Z,10.50
2023-04-11T07:10:05.423Z,10.60
2023-04-11T07:12:32.314Z,10.80
2023-04-11T07:14:59.077Z,10.70
2023-04-11T07:17:26.019Z,10.90
2023-04-11T07:19:52.822Z,11.00
2023-04-11T07:22:20.007Z,11.00
2023-04-11T07:24:50.853Z,11.10
2023-04-11T07:27:18.738Z,11.20
2023-04-11T07:29:45.755Z,11.20
2023-04-11T07:32:12.520Z,11.30
2023-04-11T07:34:39.203Z,11.40
2023-04-11T07:37:06.344Z,11.50
2023-04-11T07:39:34.143Z,11.60
2023-04-11T07:42:01.666Z,11.70
2023-04-11T07:44:28.483Z,11.80
2023-04-11T07:46:55.288Z,11.90
2023-04-11T07:49:22.036Z,12.10
2023-04-11T07:51:48.772Z,12.30
2023-04-11T07:54:15.676Z,12.40
2023-04-11T07:56:42.550Z,12.60
2023-04-11T07:59:09.354Z,12.80
2023-04-11T08:01:36.431Z,12.80
2023-04-11T08:04:03.680Z,12.70
2023-04-11T08:06:31.438Z,12.60
2023-04-11T08:09:00.680Z,12.60
2023-04-11T08:11:27.515Z,12.50
2023-04-11T08:13:54.538Z,12.40
2023-04-11T08:16:21.531Z,12.00
2023-04-11T08:18:48.493Z,12.00
2023-04-11T08:21:15.223Z,12.10
2023-04-11T08:23:42.333Z,12.40
2023-04-11T08:26:11.723Z,12.50
2023-04-11T08:28:39.950Z,12.50
2023-04-11T08:31:10.063Z,12.70
2023-04-11T08:33:36.838Z,12.80
2023-04-11T08:36:05.145Z,13.00
2023-04-11T08:38:32.987Z,13.20
2023-04-11T08:40:59.750Z,13.20
2023-04-11T08:43:26.550Z,13.00
2023-04-11T08:45:54.684Z,12.90
2023-04-11T08:48:25.445Z,12.90
2023-04-11T08:50:52.298Z,13.00
2023-04-11T08:53:22.091Z,12.90
2023-04-11T08:55:49.017Z,12.70
2023-04-11T08:58:16.133Z,13.20
2023-04-11T09:00:44.767Z,13.50
2023-04-11T09:03:14.865Z,13.90
2023-04-11T09:05:44.801Z,14.20
2023-04-11T09:08:13.464Z,14.50
2023-04-11T09:10:47.369Z,14.30
2023-04-11T09:13:24.668Z,14.30
2023-04-11T09:16:03.523Z,14.50
2023-04-11T09:18:39.803Z,14.90
2023-04-11T09:21:09.226Z,15.10
2023-04-11T09:23:36.477Z,15.20
2023-04-11T09:26:06.213Z,15.10
2023-04-11T09:28:53.185Z,15.30
2023-04-11T09:31:21.106Z,15.20
2023-04-11T09:33:55.843Z,15.20
2023-04-11T09:36:24.807Z,15.40
2023-04-11T09:38:51.903Z,15.60
2023-04-11T09:41:36.313Z,15.70
2023-04-11T09:44:03.315Z,15.70
2023-04-11T09:46:30.206Z,15.70
2023-04-11T09:48:57.208Z,15.70
2023-04-11T09:51:35.888Z,15.90
2023-04-11T09:54:06.243Z,16.20
2023-04-11T09:56:36.231Z,16.10
2023-04-11T09:59:04.346Z,16.20
2023-04-11T10:01:31.330Z,16.00
2023-04-11T10:03:58.711Z,15.80
2023-04-11T10:06:45.672Z,15.30
2023-04-11T10:09:13.945Z,15.30
2023-04-11T10:11:43.253Z,14.60
2023-04-11T10:14:38.963Z,14.20
2023-04-11T10:17:21.996Z,14.00
2023-04-11T10:19:56.470Z,13.90
2023-04-11T10:22:43.258Z,13.70
2023-04-11T10:25:26.872Z,13.50
2023-04-11T10:28:04.460Z,13.20
2023-04-11T10:30:40.510Z,13.40
2023-04-11T10:33:13.453Z,13.50
2023-04-11T10:35:59.507Z,13.60
2023-04-11T10:38:52.418Z,13.70
2023-04-11T10:41:25.346Z,14.00
2023-04-11T10:44:11.766Z,14.20
2023-04-11T10:46:45.398Z,14.60
2023-04-11T10:49:12.651Z,14.80
2023-04-11T10:51:39.460Z,14.90
2023-04-11T10:54:06.340Z,14.90
2023-04-11T10:56:51.394Z,14.50
2023-04-11T10:59:36.004Z,14.20
2023-04-11T11:02:03.361Z,14.20
2023-04-11T11:04:38.194Z,14.00
2023-04-11T11:07:07.503Z,14.00
2023-04-11T11:09:35.991Z,13.90
2023-04-11T11:12:14.444Z,13.90
2023-04-11T11:14:44.141Z,13.90
2023-04-11T11:17:12.845Z,13.70
2023-04-11T11:19:44.914Z,13.60
2023-04-11T11:22:15.925Z,13.60
2023-04-11T11:24:42.782Z,13.70
2023-04-11T11:27:25.219Z,13.90
2023-04-11T11:29:52.404Z,13.90
2023-04-11T11:32:25.294Z,13.90
2023-04-11T11:34:52.987Z,13.90
2023-04-11T11:37:21.032Z,14.30
2023-04-11T11:39:49.206Z,14.90
2023-04-11T11:42:16.148Z,15.40
2023-04-11T11:44:44.048Z,15.80
2023-04-11T11:47:12.730Z,16.10
2023-04-11T11:49:51.645Z,16.10
2023-04-11T11:52:37.572Z,16.00
2023-04-11T11:55:09.618Z,15.80
2023-04-11T11:57:37.881Z,15.50
2023-04-11T12:00:11.519Z,15.10
2023-04-11T12:02:39.405Z,14.90
2023-04-11T12:05:07.758Z,14.70
2023-04-11T12:07:37.395Z,14.90
2023-04-11T12:10:08.952Z,15.00
2023-04-11T12:12:43.990Z,15.00
2023-04-11T12:15:24.267Z,15.00
2023-04-11T12:17:57.242Z,15.10
2023-04-11T12:20:26.378Z,15.10
2023-04-11T12:22:54.798Z,15.20
2023-04-11T12:25:23.072Z,15.10
2023-04-11T12:27:49.838Z,15.20
2023-04-11T12:30:17.019Z,15.30
2023-04-11T12:32:44.913Z,15.40
2023-04-11T12:35:12.914Z,15.50
2023-04-11T12:37:40.249Z,15.60
2023-04-11T12:40:11.968Z,15.60
2023-04-11T12:42:49.462Z,15.60
2023-04-11T12:45:22.968Z,15.90
2023-04-11T12:47:50.062Z,15.90
2023-04-11T12:50:18.396Z,16.00
2023-04-11T12:52:45.308Z,16.10
2023-04-11T12:55:13.418Z,16.10
2023-04-11T12:57:42.305Z,16.20
2023-04-11T13:00:11.447Z,16.20
2023-04-11T13:02:43.817Z,16.40
2023-04-11T13:05:14.217Z,16.70
2023-04-11T13:07:41.414Z,16.80
2023-04-11T13:10:08.833Z,16.90
2023-04-11T13:12:41.120Z,16.60
2023-04-11T13:15:11.705Z,16.40
2023-04-11T13:17:38.515Z,16.00
2023-04-11T13:20:10.621Z,15.70
2023-04-11T13:22:39.213Z,15.80
2023-04-11T13:25:06.900Z,16.00
2023-04-11T13:27:34.691Z,16.20
2023-04-11T13:30:02.019Z,16.50
2023-04-11T13:32:29.076Z,16.20
2023-04-11T13:34:55.882Z,16.20
2023-04-11T13:37:22.667Z,16.20
2023-04-11T13:39:49.414Z,16.20
2023-04-11T13:42:16.241Z,16.40
2023-04-11T13:44:42.919Z,16.40
2023-04-11T13:47:09.685Z,16.70
2023-04-11T13:49:36.424Z,16.90
2023-04-11T13:52:03.273Z,16.90
2023-04-11T13:54:30.334Z,17.00
2023-04-11T13:56:58.873Z,17.20
2023-04-11T13:59:27.407Z,17.20
2023-04-11T14:01:54.271Z,17.40
2023-04-11T14:04:21.597Z,17.60
2023-04-11T14:06:48.546Z,17.80
2023-04-11T14:09:15.895Z,17.70
2023-04-11T14:11:42.683Z,17.70
2023-04-11T14:14:09.433Z,17.60
2023-04-11T14:16:36.591Z,17.50
2023-04-11T14:19:05.730Z,17.80
2023-04-11T14:21:32.702Z,17.60
2023-04-11T14:23:59.879Z,17.50
2023-04-11T14:26:29.140Z,17.50
2023-04-11T14:28:55.971Z,17.50
2023-04-11T14:31:22.901Z,17.50
2023-04-11T14:33:50.216Z,17.40
2023-04-11T14:36:19.093Z,17.30
2023-04-11T14:38:47.154Z,17.30
2023-04-11T14:41:19.682Z,17.30
2023-04-11T14:43:46.960Z,17.20
2023-04-11T14:46:13.836Z,17.10
2023-04-11T14:48:40.816Z,17.00
2023-04-11T14:51:07.964Z,16.90
2023-04-11T14:53:34.901Z,16.80
2023-04-11T14:56:05.544Z,16.60
2023-04-11T14:58:32.792Z,16.80
2023-04-11T15:00:59.627Z,16.80
2023-04-11T15:03:26.886Z,16.60
2023-04-11T15:05:54.655Z,16.50
2023-04-11T15:08:22.164Z,16.50
2023-04-11T15:10:53.877Z,16.30
2023-04-11T15:13:22.320Z,16.10
2023-04-11T15:15:49.174Z,16.20
2023-04-11T15:18:24.703Z,16.10
2023-04-11T15:20:52.597Z,16.10
2023-04-11T15:23:20.444Z,16.20
2023-04-11T15:25:57.995Z,16.30
2023-04-11T15:28:25.900Z,16.30
2023-04-11T15:30:53.831Z,16.30
2023-04-11T15:33:22.238Z,16.30
2023-04-11T15:35:49.634Z,16.30
2023-04-11T15:38:17.296Z,16.20
2023-04-11T15:40:44.183Z,16.10
2023-04-11T15:43:11.191Z,16.00
2023-04-11T15:45:44.212Z,15.80
2023-04-11T15:48:18.108Z,15.80
2023-04-11T15:50:45.870Z,15.80
2023-04-11T15:53:12.630Z,15.80
2023-04-11T15:55:40.907Z,15.90
2023-04-11T15:58:08.154Z,16.00
2023-04-11T16:00:35.947Z,16.20
2023-04-11T16:03:03.303Z,16.20
2023-04-11T16:05:53.302Z,16.00
2023-04-11T16:08:21.784Z,15.90
2023-04-11T16:10:49.386Z,15.70
2023-04-11T16:13:16.380Z,15.60
2023-04-11T16:15:43.320Z,15.40
2023-04-11T16:18:13.318Z,15.20
2023-04-11T16:20:40.354Z,15.00
2023-04-11T16:23:07.135Z,14.90
2023-04-11T16:25:33.928Z,14.90
2023-04-11T16:28:00.640Z,14.90
2023-04-11T16:30:27.859Z,15.00
2023-04-11T16:32:54.773Z,15.10
2023-04-11T16:35:21.603Z,15.20
2023-04-11T16:37:48.816Z,15.20
2023-04-11T16:40:15.635Z,15.20
2023-04-11T16:42:42.481Z,15.20
2023-04-11T16:45:09.872Z,15.20
2023-04-11T16:47:36.879Z,15.20
2023-04-11T16:50:05.542Z,15.10
2023-04-11T16:52:32.808Z,15.00
2023-04-11T16:54:59.577Z,14.90
2023-04-11T16:57:27.468Z,14.80
2023-04-11T16:59:55.527Z,14.80
2023-04-11T17:02:22.380Z,14.90
2023-04-11T17:04:49.236Z,14.60
2023-04-11T17:07:16.208Z,14.50
2023-04-11T17:09:43.024Z,14.50
2023-04-11T17:12:09.848Z,14.40
2023-04-11T17:14:36.683Z,14.40
2023-04-11T17:17:03.793Z,14.40
2023-04-11T17:19:31.487Z,14.40
2023-04-11T17:21:58.219Z,14.30
2023-04-11T17:24:25.224Z,14.30
2023-04-11T17:26:52.153Z,14.30
2023-04-11T17:29:20.183Z,14.30
2023-04-11T17:31:46.980Z,14.30
2023-04-11T17:34:13.666Z,14.30
2023-04-11T17:36:42.783Z,14.30
2023-04-11T17:39:11.285Z,14.20
2023-04-11T17:41:38.051Z,14.20
2023-04-11T17:44:04.867Z,14.10
2023-04-11T17:46:31.888Z,14.00
2023-04-11T17:48:58.905Z,13.90
2023-04-11T17:51:27.563Z,14.00
2023-04-11T17:53:56.219Z,13.80
2023-04-11T17:56:24.444Z,13.70
2023-04-11T17:58:51.192Z,13.70
2023-04-11T18:01:18.023Z,13.70
2023-04-11T18:03:45.023Z,13.60
2023-04-11T18:06:11.900Z,13.50
2023-04-11T18:08:50.499Z,13.50
2023-04-11T18:11:18.084Z,13.40
2023-04-11T18:13:46.999Z,13.30
2023-04-11T18:16:15.397Z,13.30
2023-04-11T18:18:42.144Z,13.20
2023-04-11T18:21:08.997Z,13.30
2023-04-11T18:23:35.757Z,13.20
2023-04-11T18:26:02.694Z,13.10
2023-04-11T18:28:30.775Z,13.10
2023-04-11T18:30:57.653Z,13.00
2023-04-11T18:33:24.612Z,13.10
2023-04-11T18:35:55.635Z,13.10
2023-04-11T18:38:22.651Z,13.10
2023-04-11T18:40:53.916Z,13.10
2023-04-11T18:43:22.054Z,13.00
2023-04-11T18:45:49.472Z,13.00
2023-04-11T18:48:16.296Z,12.90
2023-04-11T18:50:46.861Z,13.00
2023-04-11T18:53:15.268Z,12.90
2023-04-11T18:55:41.957Z,12.80
2023-04-11T18:58:10.076Z,12.80
2023-04-11T19:00:38.912Z,12.80
2023-04-11T19:03:15.165Z,12.80
2023-04-11T19:05:43.987Z,12.80
2023-04-11T19:08:11.076Z,12.60
2023-04-11T19:10:38.033Z,12.70
2023-04-11T19:13:05.793Z,12.70
2023-04-11T19:15:32.600Z,12.70
2023-04-11T19:17:59.962Z,12.60
2023-04-11T19:20:26.862Z,12.50
2023-04-11T19:22:53.605Z,12.60
2023-04-11T19:25:20.512Z,12.50
2023-04-11T19:27:47.380Z,12.50
2023-04-11T19:30:14.416Z,12.50
2023-04-11T19:32:43.422Z,12.40
2023-04-11T19:35:11.626Z,12.40
2023-04-11T19:37:39.016Z,12.30
2023-04-11T19:40:07.246Z,12.30
2023-04-11T19:42:36.719Z,12.30
2023-04-11T19:45:04.699Z,12.20
2023-04-11T19:47:32.965Z,12.20
2023-04-11T19:50:01.337Z,12.10
2023-04-11T19:52:28.770Z,12.20
2023-04-11T19:54:56.485Z,12.10
2023-04-11T19:57:27.363Z,12.20
2023-04-11T19:59:54.098Z,12.10
2023-04-11T20:02:21.164Z,12.00
2023-04-11T20:04:48.134Z,12.10
2023-04-11T20:07:15.500Z,12.10
2023-04-11T20:09:42.431Z,12.10
2023-04-11T20:12:09.267Z,12.00
2023-04-11T20:14:37.889Z,12.10
2023-04-11T20:17:05.640Z,12.00
2023-04-11T20:19:33.150Z,12.10
2023-04-11T20:22:00.968Z,12.10
2023-04-11T20:24:27.731Z,12.20
2023-04-11T20:26:56.934Z,12.10
2023-04-11T20:29:30.793Z,12.10
2023-04-11T20:31:58.116Z,12.00
2023-04-11T20:34:24.850Z,12.00
2023-04-11T20:36:52.036Z,12.00
2023-04-11T20:39:18.686Z,11.90
2023-04-11T20:41:45.422Z,11.90
2023-04-11T20:44:17.576Z,11.80
2023-04-11T20:46:45.076Z,11.80
2023-04-11T20:49:11.865Z,11.80
2023-04-11T20:51:38.628Z,11.80
2023-04-11T20:54:05.627Z,11.80
2023-04-11T20:56:35.316Z,11.80
2023-04-11T20:59:02.615Z,11.60
2023-04-11T21:01:32.624Z,11.60
2023-04-11T21:04:03.437Z,11.50
2023-04-11T21:06:31.723Z,11.40
2023-04-11T21:09:00.250Z,11.40
2023-04-11T21:11:28.088Z,11.30
2023-04-11T21:13:56.452Z,11.30
2023-04-11T21:16:23.597Z,11.20
2023-04-11T21:18:51.442Z,11.30
2023-04-11T21:21:18.208Z,11.20
2023-04-11T21:23:45.206Z,11.10
2023-04-11T21:26:12.183Z,10.90
2023-04-11T21:28:38.981Z,11.00
2023-04-11T21:31:06.142Z,11.00
2023-04-11T21:33:32.891Z,10.90
2023-04-11T21:35:59.690Z,10.70
2023-04-11T21:38:26.464Z,10.70
2023-04-11T21:40:53.347Z,10.70
2023-04-11T21:43:21.059Z,10.60
2023-04-11T21:45:47.817Z,10.50
2023-04-11T21:48:14.496Z,10.30
2023-04-11T21:50:41.279Z,10.30
2023-04-11T21:53:08.124Z,10.10
2023-04-11T21:55:34.884Z,10.10
2023-04-11T21:58:01.621Z,10.00
2023-04-11T22:00:28.478Z,10.00
2023-04-11T22:02:55.392Z,10.00
2023-04-11T22:05:22.755Z,10.00
2023-04-11T22:07:50.744Z,10.00
2023-04-11T22:10:22.467Z,10.00
2023-04-11T22:12:50.063Z,10.00
2023-04-11T22:15:18.222Z,10.00
2023-04-11T22:17:46.180Z,9.90
2023-04-11T22:20:13.105Z,9.90
2023-04-11T22:22:39.989Z,9.90
2023-04-11T22:25:08.344Z,9.90
2023-04-11T22:27:35.134Z,9.90
2023-04-11T22:30:02.338Z,9.80
2023-04-11T22:32:30.086Z,9.90
2023-04-11T22:34:56.830Z,9.80
2023-04-11T22:37:23.675Z,9.80
2023-04-11T22:39:50.414Z,9.70
2023-04-11T22:42:17.155Z,9.70
2023-04-11T22:44:43.951Z,9.70
2023-04-11T22:47:13.431Z,9.70
2023-04-11T22:49:40.343Z,9.70
2023-04-11T22:52:14.676Z,9.70
2023-04-11T22:54:42.541Z,9.60
2023-04-11T22:57:09.543Z,9.70
2023-04-11T22:59:36.805Z,9.60
2023-04-11T23:02:03.758Z,9.70
2023-04-11T23:04:31.892Z,9.70
2023-04-11T23:06:58.929Z,9.70
2023-04-11T23:09:26.154Z,9.70
2023-04-11T23:11:53.280Z,9.70
2023-04-11T23:14:22.629Z,9.70
2023-04-11T23:16:49.542Z,9.80
2023-04-11T23:19:18.433Z,9.60
2023-04-11T23:21:45.216Z,9.60
2023-04-11T23:24:11.919Z,9.60
2023-04-11T23:26:38.630Z,9.50
2023-04-11T23:29:05.769Z,9.50
2023-04-11T23:31:33.620Z,9.50
2023-04-11T23:34:00.914Z,9.50
2023-04-11T23:36:28.975Z,9.60
2023-04-11T23:38:55.830Z,9.50
2023-04-11T23:41:22.542Z,9.50
2023-04-11T23:43:49.370Z,9.60
2023-04-11T23:46:17.981Z,9.50
2023-04-11T23:48:46.782Z,9.50
2023-04-11T23:51:13.712Z,9.50
2023-04-11T23:53:41.126Z,9.50
2023-04-11T23:56:08.979Z,9.60
2023-04-11T23:58:35.929Z,9.50
